SAS45H ESSV-ESSA
Flight info
| Callsign | SAS45H |
|---|---|
| Flight time | 0h 27m |
| Altitude | 15000 |
| Route | ROGMI Z229 NILUG |
| Aircraft | A319/M-SDE3FGHIRWY/LB1 |
Departure
| Time | 2026-04-16 09:34 |
|---|---|
| Airport | Visby Airport (ESSV) |
Arrival
| Time | 2026-04-16 10:01 |
|---|---|
| Airport | Stockholm-Arlanda Airport (ESSA) |
| Time | Latitude | Longitude | Altitude | Speed | Heading |
|---|---|---|---|---|---|
| 2026-04-16 09:15 | 57.66067 | 18.33938 | 148 ft | 0 kts | 337° |
| 2026-04-16 09:27 | 57.66054 | 18.33948 | 148 ft | 3 kts | 328° |
| 2026-04-16 09:27 | 57.66039 | 18.33970 | 148 ft | 3 kts | 308° |
| 2026-04-16 09:27 | 57.66029 | 18.34002 | 147 ft | 3 kts | 288° |
| 2026-04-16 09:27 | 57.66023 | 18.34038 | 146 ft | 3 kts | 285° |
| 2026-04-16 09:28 | 57.66017 | 18.34068 | 147 ft | 3 kts | 327° |
| 2026-04-16 09:28 | 57.66002 | 18.34081 | 146 ft | 3 kts | 347° |
| 2026-04-16 09:28 | 57.65983 | 18.34084 | 146 ft | 3 kts | 13° |
| 2026-04-16 09:28 | 57.65964 | 18.34072 | 147 ft | 3 kts | 23° |
| 2026-04-16 09:29 | 57.65957 | 18.34067 | 147 ft | 1 kts | 21° |
| 2026-04-16 09:30 | 57.65959 | 18.34068 | 161 ft | 2 kts | 21° |
| 2026-04-16 09:30 | 57.65993 | 18.34102 | 146 ft | 8 kts | 46° |
| 2026-04-16 09:31 | 57.65987 | 18.34211 | 147 ft | 9 kts | 110° |
| 2026-04-16 09:31 | 57.65963 | 18.34328 | 150 ft | 11 kts | 118° |
| 2026-04-16 09:31 | 57.65888 | 18.34343 | 150 ft | 14 kts | 200° |
| 2026-04-16 09:31 | 57.65790 | 18.34273 | 153 ft | 15 kts | 202° |
| 2026-04-16 09:32 | 57.65691 | 18.34200 | 156 ft | 16 kts | 202° |
| 2026-04-16 09:32 | 57.65575 | 18.34112 | 156 ft | 19 kts | 201° |
| 2026-04-16 09:32 | 57.65453 | 18.34013 | 151 ft | 6 kts | 182° |
| 2026-04-16 09:32 | 57.65459 | 18.34030 | 151 ft | 2 kts | 17° |
| 2026-04-16 09:33 | 57.65475 | 18.34040 | 152 ft | 7 kts | 20° |
| 2026-04-16 09:33 | 57.65711 | 18.34214 | 156 ft | 70 kts | 20° |
| 2026-04-16 09:33 | 57.66384 | 18.34680 | 152 ft | 134 kts | 20° |
| 2026-04-16 09:33 | 57.67339 | 18.35317 | 650 ft | 147 kts | 19° |
| 2026-04-16 09:34 | 57.68331 | 18.35731 | 1393 ft | 153 kts | 354° |
| 2026-04-16 09:34 | 57.69362 | 18.35016 | 2023 ft | 164 kts | 339° |
| 2026-04-16 09:34 | 57.70470 | 18.34209 | 2514 ft | 180 kts | 342° |
| 2026-04-16 09:34 | 57.71710 | 18.33362 | 2950 ft | 201 kts | 343° |
| 2026-04-16 09:35 | 57.73109 | 18.32424 | 3373 ft | 227 kts | 343° |
| 2026-04-16 09:35 | 57.74679 | 18.31366 | 3971 ft | 252 kts | 343° |
| 2026-04-16 09:35 | 57.76372 | 18.30212 | 4887 ft | 264 kts | 343° |
| 2026-04-16 09:35 | 57.78111 | 18.29013 | 5938 ft | 270 kts | 343° |
| 2026-04-16 09:36 | 57.79888 | 18.27783 | 6970 ft | 275 kts | 343° |
| 2026-04-16 09:36 | 57.81700 | 18.26527 | 8012 ft | 279 kts | 342° |
| 2026-04-16 09:36 | 57.83528 | 18.25258 | 9071 ft | 282 kts | 342° |
| 2026-04-16 09:36 | 57.85378 | 18.23980 | 10127 ft | 285 kts | 342° |
| 2026-04-16 09:37 | 57.87285 | 18.22663 | 10733 ft | 302 kts | 342° |
| 2026-04-16 09:37 | 57.89323 | 18.21254 | 11234 ft | 320 kts | 342° |
| 2026-04-16 09:37 | 57.91433 | 18.19785 | 12015 ft | 327 kts | 342° |
| 2026-04-16 09:37 | 57.93583 | 18.18287 | 12834 ft | 332 kts | 342° |
| 2026-04-16 09:38 | 57.95768 | 18.16765 | 13654 ft | 338 kts | 342° |
| 2026-04-16 09:38 | 57.97994 | 18.15219 | 14415 ft | 343 kts | 343° |
| 2026-04-16 09:38 | 58.00253 | 18.13644 | 14992 ft | 348 kts | 342° |
| 2026-04-16 09:38 | 58.02526 | 18.12050 | 15153 ft | 349 kts | 342° |
| 2026-04-16 09:39 | 58.04772 | 18.10470 | 15201 ft | 337 kts | 342° |
| 2026-04-16 09:39 | 58.06916 | 18.08957 | 15208 ft | 331 kts | 343° |
| 2026-04-16 09:39 | 58.09067 | 18.07443 | 15209 ft | 330 kts | 343° |
| 2026-04-16 09:39 | 58.11214 | 18.05933 | 15209 ft | 329 kts | 343° |
| 2026-04-16 09:40 | 58.13357 | 18.04424 | 15212 ft | 329 kts | 343° |
| 2026-04-16 09:40 | 58.15506 | 18.02909 | 15212 ft | 329 kts | 343° |
| 2026-04-16 09:40 | 58.17648 | 18.01395 | 15212 ft | 329 kts | 342° |
| 2026-04-16 09:40 | 58.19825 | 18.00155 | 15212 ft | 326 kts | 353° |
| 2026-04-16 09:41 | 58.22063 | 17.99648 | 15213 ft | 324 kts | 358° |
| 2026-04-16 09:41 | 58.24303 | 17.99240 | 15214 ft | 324 kts | 358° |
| 2026-04-16 09:41 | 58.26546 | 17.98833 | 15214 ft | 324 kts | 358° |
| 2026-04-16 09:41 | 58.28788 | 17.98424 | 15215 ft | 324 kts | 358° |
| 2026-04-16 09:42 | 58.31029 | 17.98016 | 15214 ft | 324 kts | 358° |
| 2026-04-16 09:42 | 58.33272 | 17.97602 | 15217 ft | 324 kts | 358° |
| 2026-04-16 09:42 | 58.35512 | 17.97186 | 15209 ft | 324 kts | 358° |
| 2026-04-16 09:42 | 58.37754 | 17.96765 | 15212 ft | 324 kts | 358° |
| 2026-04-16 09:43 | 58.39993 | 17.96341 | 15212 ft | 324 kts | 358° |
| 2026-04-16 09:43 | 58.42235 | 17.95919 | 15215 ft | 323 kts | 358° |
| 2026-04-16 09:43 | 58.44475 | 17.95500 | 15225 ft | 323 kts | 358° |
| 2026-04-16 09:43 | 58.46714 | 17.95080 | 15227 ft | 324 kts | 358° |
| 2026-04-16 09:44 | 58.48952 | 17.94662 | 15229 ft | 324 kts | 358° |
| 2026-04-16 09:44 | 58.51195 | 17.94240 | 15231 ft | 323 kts | 358° |
| 2026-04-16 09:44 | 58.53435 | 17.93815 | 15232 ft | 324 kts | 358° |
| 2026-04-16 09:44 | 58.55676 | 17.93388 | 15234 ft | 324 kts | 358° |
| 2026-04-16 09:45 | 58.57920 | 17.92960 | 15236 ft | 324 kts | 358° |
| 2026-04-16 09:45 | 58.60159 | 17.92535 | 15238 ft | 324 kts | 358° |
| 2026-04-16 09:45 | 58.62400 | 17.92111 | 15239 ft | 324 kts | 358° |
| 2026-04-16 09:45 | 58.64641 | 17.91687 | 15226 ft | 324 kts | 358° |
| 2026-04-16 09:46 | 58.66853 | 17.91268 | 15227 ft | 324 kts | 358° |
| 2026-04-16 09:46 | 58.69121 | 17.90837 | 15230 ft | 323 kts | 358° |
| 2026-04-16 09:46 | 58.71362 | 17.90415 | 15234 ft | 323 kts | 358° |
| 2026-04-16 09:46 | 58.73601 | 17.89992 | 15229 ft | 323 kts | 358° |
| 2026-04-16 09:47 | 58.75837 | 17.89565 | 15228 ft | 323 kts | 358° |
| 2026-04-16 09:47 | 58.78046 | 17.89144 | 15228 ft | 323 kts | 358° |
| 2026-04-16 09:47 | 58.80286 | 17.88893 | 14987 ft | 313 kts | 6° |
| 2026-04-16 09:47 | 58.82373 | 17.89526 | 14751 ft | 304 kts | 19° |
| 2026-04-16 09:48 | 58.84308 | 17.91021 | 14505 ft | 298 kts | 30° |
| 2026-04-16 09:48 | 58.86165 | 17.92792 | 14261 ft | 297 kts | 29° |
| 2026-04-16 09:48 | 58.88015 | 17.94539 | 14015 ft | 295 kts | 29° |
| 2026-04-16 09:48 | 58.89858 | 17.96278 | 13747 ft | 294 kts | 28° |
| 2026-04-16 09:49 | 58.91693 | 17.98008 | 13557 ft | 294 kts | 28° |
| 2026-04-16 09:49 | 58.93529 | 17.99739 | 13276 ft | 293 kts | 28° |
| 2026-04-16 09:49 | 58.95356 | 18.01465 | 12990 ft | 292 kts | 28° |
| 2026-04-16 09:49 | 58.97174 | 18.03186 | 12697 ft | 290 kts | 28° |
| 2026-04-16 09:50 | 58.98984 | 18.04904 | 12408 ft | 289 kts | 28° |
| 2026-04-16 09:50 | 59.00785 | 18.06615 | 12114 ft | 288 kts | 28° |
| 2026-04-16 09:50 | 59.02576 | 18.08321 | 11829 ft | 286 kts | 28° |
| 2026-04-16 09:50 | 59.04360 | 18.10026 | 11541 ft | 285 kts | 28° |
| 2026-04-16 09:51 | 59.06135 | 18.11723 | 11255 ft | 284 kts | 28° |
| 2026-04-16 09:51 | 59.07902 | 18.13413 | 10968 ft | 282 kts | 28° |
| 2026-04-16 09:51 | 59.09713 | 18.14868 | 10663 ft | 282 kts | 17° |
| 2026-04-16 09:51 | 59.11654 | 18.15372 | 10336 ft | 284 kts | 359° |
| 2026-04-16 09:52 | 59.13617 | 18.14807 | 9898 ft | 286 kts | 351° |
| 2026-04-16 09:52 | 59.15574 | 18.14064 | 9458 ft | 287 kts | 350° |
| 2026-04-16 09:52 | 59.17466 | 18.12815 | 9027 ft | 288 kts | 339° |
| 2026-04-16 09:52 | 59.19302 | 18.11236 | 8610 ft | 288 kts | 338° |
| 2026-04-16 09:53 | 59.21133 | 18.09639 | 8177 ft | 287 kts | 338° |
| 2026-04-16 09:53 | 59.22953 | 18.08046 | 7747 ft | 287 kts | 338° |
| 2026-04-16 09:53 | 59.24771 | 18.06456 | 7353 ft | 286 kts | 337° |
| 2026-04-16 09:53 | 59.26583 | 18.04884 | 6991 ft | 284 kts | 338° |
| 2026-04-16 09:54 | 59.28376 | 18.03326 | 6639 ft | 281 kts | 338° |
| 2026-04-16 09:54 | 59.30158 | 18.01786 | 6271 ft | 279 kts | 338° |
| 2026-04-16 09:54 | 59.31925 | 18.00255 | 5901 ft | 277 kts | 338° |
| 2026-04-16 09:54 | 59.33675 | 17.98728 | 5538 ft | 275 kts | 338° |
| 2026-04-16 09:55 | 59.35412 | 17.97204 | 5175 ft | 273 kts | 338° |
| 2026-04-16 09:55 | 59.37129 | 17.95678 | 4789 ft | 266 kts | 338° |
| 2026-04-16 09:55 | 59.38780 | 17.94213 | 4477 ft | 255 kts | 338° |
| 2026-04-16 09:55 | 59.40362 | 17.92819 | 4175 ft | 245 kts | 338° |
| 2026-04-16 09:56 | 59.41890 | 17.91471 | 3843 ft | 236 kts | 338° |
| 2026-04-16 09:56 | 59.43344 | 17.90188 | 3529 ft | 227 kts | 338° |
| 2026-04-16 09:56 | 59.44757 | 17.88941 | 3216 ft | 219 kts | 339° |
| 2026-04-16 09:56 | 59.46115 | 17.87740 | 2928 ft | 211 kts | 339° |
| 2026-04-16 09:57 | 59.47470 | 17.86562 | 2637 ft | 214 kts | 341° |
| 2026-04-16 09:57 | 59.48891 | 17.86070 | 2509 ft | 201 kts | 5° |
| 2026-04-16 09:57 | 59.50215 | 17.86463 | 2512 ft | 187 kts | 13° |
| 2026-04-16 09:57 | 59.51474 | 17.86911 | 2497 ft | 182 kts | 13° |
| 2026-04-16 09:58 | 59.52696 | 17.87350 | 2371 ft | 175 kts | 13° |
| 2026-04-16 09:58 | 59.53861 | 17.87769 | 2122 ft | 163 kts | 13° |
| 2026-04-16 09:58 | 59.54934 | 17.88153 | 1920 ft | 148 kts | 13° |
| 2026-04-16 09:58 | 59.55888 | 17.88495 | 1716 ft | 132 kts | 14° |
| 2026-04-16 09:59 | 59.56769 | 17.88813 | 1537 ft | 126 kts | 15° |
| 2026-04-16 09:59 | 59.57353 | 17.89022 | 1425 ft | 126 kts | 13° |
| 2026-04-16 09:59 | 59.58208 | 17.89331 | 1246 ft | 124 kts | 13° |
| 2026-04-16 09:59 | 59.59062 | 17.89642 | 1072 ft | 124 kts | 13° |
| 2026-04-16 10:00 | 59.59906 | 17.89949 | 843 ft | 122 kts | 13° |
| 2026-04-16 10:00 | 59.60749 | 17.90251 | 694 ft | 125 kts | 12° |
| 2026-04-16 10:00 | 59.61600 | 17.90556 | 567 ft | 124 kts | 11° |
| 2026-04-16 10:01 | 59.63303 | 17.91173 | 232 ft | 123 kts | 11° |
| 2026-04-16 10:01 | 59.64117 | 17.91468 | 108 ft | 110 kts | 11° |
| 2026-04-16 10:01 | 59.64643 | 17.91653 | 111 ft | 38 kts | 10° |
| 2026-04-16 10:01 | 59.64782 | 17.91806 | 106 ft | 26 kts | 45° |
| 2026-04-16 10:02 | 59.64916 | 17.92052 | 105 ft | 14 kts | 43° |
| 2026-04-16 10:02 | 59.65002 | 17.92145 | 107 ft | 16 kts | 9° |
| 2026-04-16 10:02 | 59.65123 | 17.92184 | 107 ft | 19 kts | 9° |
| 2026-04-16 10:02 | 59.65261 | 17.92239 | 106 ft | 16 kts | 13° |
| 2026-04-16 10:03 | 59.65292 | 17.92410 | 110 ft | 15 kts | 109° |
| 2026-04-16 10:03 | 59.65229 | 17.92564 | 112 ft | 16 kts | 159° |
| 2026-04-16 10:03 | 59.65164 | 17.92612 | 112 ft | 3 kts | 159° |
| 2026-04-16 10:03 | 59.65162 | 17.92614 | 112 ft | 0 kts | 159° |